Dexter, OR (97431)

2:24 PM PDT on July 20, 2017 (GMT -0700)
Trent Area | | Change Station

Elev 600 ft 43.95 °N, 122.86 °W | Updated 1 minute ago

Partly Cloudy
Partly Cloudy
73.8 °F
Feels Like 77 °F
N
4.0
Wind Variable Wind from NNE
Gusts 4.9 mph

Today
High -- | Low -- °F
--% Chance of Precip.
Yesterday
High -- | Low -- °F
Precip. -- in
Pressure 30.16 in
Visibility 10.0 miles
Clouds Scattered Clouds 5000 ft
Heat Index 77 °F
Dew Point 55 °F
Humidity 52%
Rainfall 0.00 in
Snow Depth Not available.
5:47 AM 8:47 PM
Waning Crescent, 9% visible
METAR KEUG 202054Z 28006KT 10SM SCT050 22/11 A3016 RMK AO2 SLP213 T02220106 58008
Pressure 30.16 in
Visibility 10.0 miles
Clouds Scattered Clouds 5000 ft
Heat Index 77 °F
Dew Point 55 °F
Humidity 52%
Rainfall 0.00 in
Snow Depth Not available.
5:47 AM 8:47 PM
Waning Crescent, 9% visible
METAR KEUG 202054Z 28006KT 10SM SCT050 22/11 A3016 RMK AO2 SLP213 T02220106 58008

Get Severe Weather Alerts

Thanks for signing up!

Be on the lookout for a verification email in your inbox.

You'll start receiving the daily forecast at 6 AM.

×

10-Day Weather Forecast

Almanac

Astronomy

Jul. 20, 2017 Rise Set
Actual Time
Civil Twilight
Nautical Twilight
Astronomical Twilight
Moon
Length of Visible Light
Length of Day
Tomorrow will be .
, % of the Moon is Illuminated

Today's Extremes

State Highs State Lows

Community

WunderPhotos

Category 6

Welcome to Category 6. This is the collective home for Weather Underground's featured writeups by Dr. Jeff Masters (right), Bob Henson (left), Chris Burt, and other regular contributors.

Nearby

Air Quality

  Air Quality AQ Index Pollutant
Not available.

Snow Depth

Station Depth Elevation

Earthquake Activity

City Distance Mag. Time & Date
Minimum magnitude displayed is 2.5.

Coastal Water Temperatures

Place Temperature

Stations

Nearby Weather Stations

Station Location Temp. Windchill Dew Point Humidity Wind Precip. Elev Updated Type
                   

Watches & Warnings

There are currently no watches in effect.